Terminal Aerodrome Forecast
Issued by NWS Paducah, KY

Home | Current Version | Previous Version | Text Only | Print | Product List | Glossary Off
Versions: 1 2 3 4 5 6 7 8 9 10 11 12 13 14 15 16

000
FTUS43 KPAH 211700
TAFPAH
TAF
KPAH 211732Z 2118/2218 36010G15KT P6SM SCT040
     FM220000 04003KT P6SM SKC=

USA.gov is the U.S. government's official web portal to all federal, state and local government web resources and services.